createdAt,value
2018-12-20T00:01:46.328Z,87.10
2018-12-20T00:02:46.473Z,87.30
2018-12-20T00:03:46.361Z,86.80
2018-12-20T00:04:46.384Z,85.30
2018-12-20T00:05:46.321Z,87.90
2018-12-20T00:06:46.447Z,86.40
2018-12-20T00:07:46.429Z,86.40
2018-12-20T00:08:46.419Z,80.90
2018-12-20T00:09:46.388Z,89.40
2018-12-20T00:10:46.521Z,89.00
2018-12-20T00:11:46.530Z,85.20
2018-12-20T00:12:46.432Z,84.40
2018-12-20T00:13:46.720Z,86.40
2018-12-20T00:14:46.609Z,86.40
2018-12-20T00:15:46.572Z,85.40
2018-12-20T00:16:46.623Z,84.80
2018-12-20T00:17:46.523Z,85.50
2018-12-20T00:18:46.805Z,85.40
2018-12-20T00:19:46.668Z,82.00
2018-12-20T00:20:46.603Z,84.00
2018-12-20T00:21:46.593Z,86.20
2018-12-20T00:22:46.645Z,86.80
2018-12-20T00:23:47.005Z,84.90
2018-12-20T00:24:46.791Z,86.40
2018-12-20T00:25:46.784Z,87.10
2018-12-20T00:26:46.797Z,90.00
2018-12-20T00:27:46.827Z,87.10
2018-12-20T00:28:47.025Z,91.20
2018-12-20T00:29:46.758Z,88.70
2018-12-20T00:30:47.046Z,87.10
2018-12-20T00:31:46.995Z,84.80
2018-12-20T00:32:46.769Z,84.90
2018-12-20T00:33:46.931Z,86.20
2018-12-20T00:34:47.033Z,84.20
2018-12-20T00:35:46.823Z,84.50
2018-12-20T00:36:46.967Z,88.20
2018-12-20T00:37:47.058Z,88.60
2018-12-20T00:38:46.984Z,91.40
2018-12-20T00:39:47.018Z,87.40
2018-12-20T00:40:47.100Z,85.10
2018-12-20T00:41:47.074Z,85.80
2018-12-20T00:42:46.955Z,86.90
2018-12-20T00:43:47.057Z,90.60
2018-12-20T00:44:46.986Z,89.30
2018-12-20T00:45:47.142Z,85.90
2018-12-20T00:46:47.161Z,84.10
2018-12-20T00:47:47.155Z,89.00
2018-12-20T00:48:47.118Z,89.50
2018-12-20T00:49:47.066Z,90.60
2018-12-20T00:50:47.270Z,88.00
2018-12-20T00:51:47.092Z,85.00
2018-12-20T00:52:47.128Z,84.90
2018-12-20T00:53:47.220Z,85.20
2018-12-20T00:54:47.423Z,88.70
2018-12-20T00:55:47.269Z,85.00
2018-12-20T00:56:47.214Z,87.90
2018-12-20T00:57:47.393Z,87.20
2018-12-20T00:58:47.260Z,85.40
2018-12-20T00:59:47.379Z,83.10
2018-12-20T01:00:47.352Z,81.60
2018-12-20T01:01:47.285Z,83.10
2018-12-20T01:02:47.334Z,82.20
2018-12-20T01:03:47.307Z,88.50
2018-12-20T01:04:47.423Z,85.80
2018-12-20T01:05:47.439Z,86.20
2018-12-20T01:06:47.352Z,87.30
2018-12-20T01:07:47.552Z,87.00
2018-12-20T01:08:47.406Z,84.40
2018-12-20T01:09:47.809Z,85.70
2018-12-20T01:10:47.633Z,83.50
2018-12-20T01:11:47.499Z,82.70
2018-12-20T01:12:47.650Z,84.00
2018-12-20T01:13:47.470Z,82.80
2018-12-20T01:14:47.746Z,81.70
2018-12-20T01:15:47.632Z,82.70
2018-12-20T01:16:47.533Z,84.70
2018-12-20T01:17:47.552Z,80.90
2018-12-20T01:18:47.554Z,82.70
2018-12-20T01:19:47.861Z,83.20
2018-12-20T01:20:47.634Z,83.60
2018-12-20T01:21:47.677Z,85.10
2018-12-20T01:22:47.617Z,84.90
2018-12-20T01:23:47.652Z,86.10
2018-12-20T01:24:47.753Z,83.70
2018-12-20T01:25:47.923Z,81.90
2018-12-20T01:26:47.717Z,84.60
2018-12-20T01:27:47.926Z,81.60
2018-12-20T01:28:47.815Z,82.80
2018-12-20T01:29:47.987Z,84.80
2018-12-20T01:30:47.831Z,82.80
2018-12-20T01:31:47.949Z,83.00
2018-12-20T01:32:47.817Z,79.80
2018-12-20T01:33:48.111Z,84.20
2018-12-20T01:34:48.054Z,80.60
2018-12-20T01:35:47.914Z,77.40
2018-12-20T01:36:47.870Z,79.30
2018-12-20T01:37:47.895Z,75.40
2018-12-20T01:38:48.009Z,78.20
2018-12-20T01:39:48.367Z,79.80
2018-12-20T01:40:48.118Z,79.60
2018-12-20T01:41:48.078Z,79.20
2018-12-20T01:42:48.091Z,80.30
2018-12-20T01:43:48.059Z,80.00
2018-12-20T01:44:53.513Z,77.40
2018-12-20T01:45:48.294Z,75.50
2018-12-20T01:46:48.343Z,74.90
2018-12-20T01:47:48.175Z,72.40
2018-12-20T01:48:48.225Z,74.90
2018-12-20T01:49:48.379Z,74.80
2018-12-20T01:50:48.147Z,73.10
2018-12-20T01:51:48.134Z,74.60
2018-12-20T01:52:48.137Z,73.30
2018-12-20T01:53:48.185Z,76.50
2018-12-20T01:54:48.398Z,76.90
2018-12-20T01:55:48.321Z,74.70
2018-12-20T01:56:48.333Z,77.60
2018-12-20T01:57:48.354Z,74.20
2018-12-20T01:58:48.520Z,72.30
2018-12-20T01:59:48.484Z,80.10
2018-12-20T02:00:48.399Z,74.70
2018-12-20T02:01:48.572Z,73.10
2018-12-20T02:02:48.474Z,74.30
2018-12-20T02:03:48.451Z,76.30
2018-12-20T02:04:48.484Z,74.40
2018-12-20T02:05:48.446Z,77.30
2018-12-20T02:06:48.504Z,75.60
2018-12-20T02:07:48.546Z,76.50
2018-12-20T02:08:48.431Z,73.70
2018-12-20T02:09:48.480Z,73.80
2018-12-20T02:10:48.615Z,78.00
2018-12-20T02:11:48.591Z,73.10
2018-12-20T02:12:48.644Z,73.80
2018-12-20T02:13:48.493Z,75.20
2018-12-20T02:14:48.704Z,73.80
2018-12-20T02:15:48.694Z,72.70
2018-12-20T02:16:48.699Z,69.80
2018-12-20T02:17:48.630Z,72.70
2018-12-20T02:18:48.590Z,69.80
2018-12-20T02:19:49.025Z,74.60
2018-12-20T02:20:48.878Z,72.60
2018-12-20T02:21:48.823Z,74.50
2018-12-20T02:22:48.664Z,70.40
2018-12-20T02:23:48.729Z,67.40
2018-12-20T02:24:48.746Z,67.30
2018-12-20T02:25:48.784Z,67.20
2018-12-20T02:26:48.820Z,68.20
2018-12-20T02:27:48.931Z,73.10
2018-12-20T02:28:48.999Z,70.30
2018-12-20T02:29:48.787Z,66.60
2018-12-20T02:30:48.874Z,62.10
2018-12-20T02:31:49.096Z,57.10
2018-12-20T02:32:49.090Z,58.00
2018-12-20T02:33:48.980Z,59.40
2018-12-20T02:34:49.091Z,54.20
2018-12-20T02:35:48.996Z,47.50
2018-12-20T02:36:48.953Z,50.10
2018-12-20T02:37:49.365Z,49.50
2018-12-20T02:38:49.060Z,45.50
2018-12-20T02:39:49.093Z,41.90
2018-12-20T02:40:48.976Z,42.60
2018-12-20T02:41:48.998Z,36.50
2018-12-20T02:42:49.230Z,32.80
2018-12-20T02:43:49.180Z,31.80
2018-12-20T02:44:49.063Z,25.50
2018-12-20T02:45:49.106Z,27.30
2018-12-20T02:46:49.205Z,25.80
2018-12-20T02:47:49.205Z,25.20
2018-12-20T02:48:49.117Z,23.40
2018-12-20T02:49:49.197Z,23.90
2018-12-20T02:50:49.245Z,23.60
2018-12-20T02:51:49.181Z,23.60
2018-12-20T02:52:49.694Z,22.80
2018-12-20T02:53:49.540Z,22.20
2018-12-20T02:54:49.327Z,24.00
2018-12-20T02:55:49.429Z,22.00
2018-12-20T02:56:49.326Z,20.50
2018-12-20T02:57:49.426Z,21.20
2018-12-20T02:58:49.332Z,21.00
2018-12-20T02:59:49.444Z,21.30
2018-12-20T03:00:49.475Z,22.00
2018-12-20T03:01:49.474Z,21.00
2018-12-20T03:02:49.420Z,21.70
2018-12-20T03:03:49.554Z,21.30
2018-12-20T03:04:49.578Z,21.90
2018-12-20T03:05:49.419Z,21.40
2018-12-20T03:06:49.574Z,22.20
2018-12-20T03:07:49.675Z,21.60
2018-12-20T03:08:49.488Z,21.10
2018-12-20T03:09:49.639Z,22.10
2018-12-20T03:10:49.558Z,22.40
2018-12-20T03:11:49.523Z,23.00
2018-12-20T03:12:49.741Z,23.30
2018-12-20T03:13:49.590Z,22.60
2018-12-20T03:14:49.842Z,22.30
2018-12-20T03:15:49.580Z,23.00
2018-12-20T03:16:49.873Z,23.40
2018-12-20T03:17:49.848Z,22.40
2018-12-20T03:18:49.842Z,23.50
2018-12-20T03:19:49.832Z,24.10
2018-12-20T03:20:49.720Z,23.40
2018-12-20T03:21:49.717Z,22.40
2018-12-20T03:22:49.775Z,23.40
2018-12-20T03:23:49.717Z,22.80
2018-12-20T03:24:49.963Z,23.20
2018-12-20T03:25:49.936Z,22.70
2018-12-20T03:26:49.767Z,23.60
2018-12-20T03:27:49.865Z,23.50
2018-12-20T03:28:50.167Z,23.60
2018-12-20T03:29:50.039Z,25.00
2018-12-20T03:30:50.008Z,25.60
2018-12-20T03:31:50.329Z,23.80
2018-12-20T03:32:49.902Z,26.20
2018-12-20T03:33:50.709Z,25.40
2018-12-20T03:34:50.145Z,26.90
2018-12-20T03:35:49.949Z,24.50
2018-12-20T03:36:49.964Z,24.60
2018-12-20T03:37:49.973Z,24.50
2018-12-20T03:38:49.990Z,26.40
2018-12-20T03:39:50.271Z,25.40
2018-12-20T03:40:50.338Z,25.60
2018-12-20T03:41:50.076Z,28.40
2018-12-20T03:42:50.047Z,29.00
2018-12-20T03:43:50.127Z,27.50
2018-12-20T03:44:50.250Z,29.90
2018-12-20T03:45:50.139Z,29.80
2018-12-20T03:46:50.135Z,30.50
2018-12-20T03:47:50.299Z,30.90
2018-12-20T03:48:50.171Z,33.20
2018-12-20T03:49:50.439Z,33.20
2018-12-20T03:50:50.240Z,32.10
2018-12-20T03:51:50.265Z,32.60
2018-12-20T03:52:50.277Z,32.30
2018-12-20T03:53:50.554Z,35.80
2018-12-20T03:54:50.524Z,34.60
2018-12-20T03:55:50.448Z,31.70
2018-12-20T03:56:50.314Z,32.50
2018-12-20T03:57:50.481Z,32.70
2018-12-20T03:58:50.336Z,31.60
2018-12-20T03:59:50.612Z,32.20
2018-12-20T04:00:50.366Z,33.30
2018-12-20T04:01:50.449Z,32.60
2018-12-20T04:02:50.658Z,32.50
2018-12-20T04:03:50.569Z,33.20
2018-12-20T04:04:50.536Z,32.10
2018-12-20T04:05:50.469Z,34.40
2018-12-20T04:06:50.477Z,33.80
2018-12-20T04:07:50.519Z,34.70
2018-12-20T04:08:50.599Z,33.90
2018-12-20T04:09:51.045Z,33.10
2018-12-20T04:10:50.666Z,32.40
2018-12-20T04:11:50.560Z,34.20
2018-12-20T04:12:50.967Z,34.40
2018-12-20T04:13:50.617Z,35.00
2018-12-20T04:14:50.810Z,34.10
2018-12-20T04:15:50.746Z,34.00
2018-12-20T04:16:50.691Z,34.30
2018-12-20T04:17:50.666Z,34.70
2018-12-20T04:18:50.851Z,39.30
2018-12-20T04:19:50.794Z,37.20
2018-12-20T04:20:50.894Z,36.90
2018-12-20T04:21:50.803Z,37.30
2018-12-20T04:22:50.899Z,36.60
2018-12-20T04:23:50.799Z,38.80
2018-12-20T04:24:50.902Z,37.00
2018-12-20T04:25:50.800Z,38.00
2018-12-20T04:26:50.880Z,34.90
2018-12-20T04:27:50.947Z,34.90
2018-12-20T04:28:50.876Z,34.70
2018-12-20T04:29:51.104Z,35.60
2018-12-20T04:30:51.181Z,34.50
2018-12-20T04:31:50.939Z,35.40
2018-12-20T04:32:51.169Z,35.10
2018-12-20T04:33:51.088Z,34.80
2018-12-20T04:34:51.052Z,32.20
2018-12-20T04:35:51.053Z,32.30
2018-12-20T04:36:51.068Z,30.20
2018-12-20T04:37:51.121Z,31.60
2018-12-20T04:38:51.155Z,30.40
2018-12-20T04:39:51.137Z,29.80
2018-12-20T04:40:51.125Z,27.90
2018-12-20T04:41:51.249Z,28.20
2018-12-20T04:42:51.250Z,27.30
2018-12-20T04:43:51.233Z,27.20
2018-12-20T04:44:51.240Z,29.10
2018-12-20T04:45:51.561Z,27.10
2018-12-20T04:46:51.293Z,28.00
2018-12-20T04:47:51.315Z,25.40
2018-12-20T04:48:51.355Z,24.40
2018-12-20T04:49:51.369Z,24.70
2018-12-20T04:50:51.372Z,25.50
2018-12-20T04:51:51.448Z,24.50
2018-12-20T04:52:51.279Z,22.50
2018-12-20T04:53:51.497Z,22.00
2018-12-20T04:54:51.293Z,22.00
2018-12-20T04:55:51.590Z,21.60
2018-12-20T04:56:51.759Z,21.10
2018-12-20T04:57:51.358Z,20.90
2018-12-20T04:58:51.381Z,20.90
2018-12-20T04:59:51.530Z,20.50
2018-12-20T05:00:51.501Z,21.70
2018-12-20T05:01:51.439Z,22.20
2018-12-20T05:02:51.448Z,19.90
2018-12-20T05:03:51.464Z,18.00
2018-12-20T05:04:51.565Z,17.80
2018-12-20T05:05:51.559Z,17.70
2018-12-20T05:06:51.536Z,17.60
2018-12-20T05:07:51.717Z,18.50
2018-12-20T05:08:51.815Z,16.50
2018-12-20T05:09:51.760Z,16.50
2018-12-20T05:10:51.958Z,16.00
2018-12-20T05:11:51.816Z,15.90
2018-12-20T05:12:51.631Z,15.50
2018-12-20T05:13:51.625Z,13.80
2018-12-20T05:14:51.800Z,15.50
2018-12-20T05:15:55.988Z,14.60
2018-12-20T05:16:51.671Z,13.90
2018-12-20T05:17:51.779Z,15.40
2018-12-20T05:18:51.756Z,15.60
2018-12-20T05:19:52.023Z,14.40
2018-12-20T05:20:51.742Z,13.70
2018-12-20T05:21:51.907Z,12.80
2018-12-20T05:22:51.913Z,12.50
2018-12-20T05:23:51.921Z,13.20
2018-12-20T05:24:52.041Z,13.20
2018-12-20T05:25:52.072Z,13.30
2018-12-20T05:26:51.868Z,13.60
2018-12-20T05:27:51.907Z,13.30
2018-12-20T05:28:51.956Z,13.10
2018-12-20T05:29:52.224Z,12.70
2018-12-20T05:30:51.998Z,12.70
2018-12-20T05:31:51.952Z,12.80
2018-12-20T05:32:52.092Z,12.70
2018-12-20T05:33:52.156Z,13.10
2018-12-20T05:34:52.189Z,12.30
2018-12-20T05:35:52.014Z,11.80
2018-12-20T05:36:52.330Z,11.80
2018-12-20T05:37:52.086Z,11.60
2018-12-20T05:38:52.179Z,11.30
2018-12-20T05:39:52.286Z,10.10
2018-12-20T05:40:52.322Z,10.60
2018-12-20T05:41:52.232Z,10.20
2018-12-20T05:42:52.156Z,9.30
2018-12-20T05:43:52.374Z,9.50
2018-12-20T05:44:52.354Z,9.30
2018-12-20T05:45:52.247Z,8.80
2018-12-20T05:46:52.310Z,9.50
2018-12-20T05:47:52.408Z,8.90
2018-12-20T05:48:52.221Z,9.30
2018-12-20T05:49:52.549Z,8.80
2018-12-20T05:50:52.306Z,9.20
2018-12-20T05:51:52.588Z,9.20
2018-12-20T05:52:52.422Z,10.10
2018-12-20T05:53:52.500Z,9.30
2018-12-20T05:54:52.479Z,9.80
2018-12-20T05:55:52.461Z,9.40
2018-12-20T05:56:52.371Z,9.60
2018-12-20T05:57:52.483Z,9.70
2018-12-20T05:58:52.446Z,9.10
2018-12-20T05:59:52.568Z,9.70
2018-12-20T06:00:52.860Z,9.40
2018-12-20T06:01:52.484Z,8.60
2018-12-20T06:02:52.522Z,10.00
2018-12-20T06:03:52.573Z,9.90
2018-12-20T06:04:52.727Z,10.70
2018-12-20T06:05:52.636Z,11.60
2018-12-20T06:06:52.852Z,10.80
2018-12-20T06:07:52.781Z,10.60
2018-12-20T06:08:52.691Z,10.20
2018-12-20T06:09:52.720Z,11.00
2018-12-20T06:10:52.947Z,10.40
2018-12-20T06:11:52.880Z,10.10
2018-12-20T06:12:52.666Z,11.00
2018-12-20T06:13:52.665Z,10.50
2018-12-20T06:14:52.782Z,10.90
2018-12-20T06:15:52.706Z,10.70
2018-12-20T06:16:52.706Z,11.40
2018-12-20T06:17:52.731Z,11.20
2018-12-20T06:18:52.758Z,11.30
2018-12-20T06:19:52.890Z,11.60
2018-12-20T06:20:52.827Z,12.10
2018-12-20T06:21:52.799Z,11.50
2018-12-20T06:22:52.820Z,12.20
2018-12-20T06:23:52.842Z,11.50
2018-12-20T06:24:52.995Z,11.50
2018-12-20T06:25:52.860Z,11.30
2018-12-20T06:26:52.878Z,11.80
2018-12-20T06:27:52.901Z,12.80
2018-12-20T06:28:52.910Z,11.60
2018-12-20T06:29:52.998Z,12.10
2018-12-20T06:30:52.944Z,12.40
2018-12-20T06:31:52.973Z,12.00
2018-12-20T06:32:52.991Z,11.20
2018-12-20T06:33:53.199Z,12.20
2018-12-20T06:34:53.011Z,12.70
2018-12-20T06:35:53.037Z,11.40
2018-12-20T06:36:53.053Z,11.90
2018-12-20T06:37:53.057Z,12.40
2018-12-20T06:38:53.187Z,12.20
2018-12-20T06:39:53.086Z,11.50
2018-12-20T06:40:53.123Z,12.20
2018-12-20T06:41:53.171Z,12.30
2018-12-20T06:42:53.147Z,13.20
2018-12-20T06:43:53.275Z,11.70
2018-12-20T06:44:53.232Z,12.60
2018-12-20T06:45:53.189Z,12.50
2018-12-20T06:46:53.341Z,12.50
2018-12-20T06:47:53.336Z,12.60
2018-12-20T06:48:53.351Z,12.20
2018-12-20T06:49:53.289Z,13.40
2018-12-20T06:50:53.289Z,12.90
2018-12-20T06:51:53.305Z,13.00
2018-12-20T06:52:53.341Z,12.70
2018-12-20T06:53:53.384Z,12.70
2018-12-20T06:54:53.452Z,13.20
2018-12-20T06:55:53.373Z,13.00
2018-12-20T06:56:53.393Z,13.60
2018-12-20T06:57:53.401Z,13.20
2018-12-20T06:58:53.415Z,12.80
2018-12-20T06:59:53.591Z,12.80
2018-12-20T07:00:53.458Z,13.00
2018-12-20T07:01:53.513Z,13.30
2018-12-20T07:02:53.492Z,12.50
2018-12-20T07:03:53.523Z,12.70
2018-12-20T07:04:53.630Z,13.00
2018-12-20T07:05:53.655Z,13.30
2018-12-20T07:06:53.547Z,14.10
2018-12-20T07:07:53.557Z,13.20
2018-12-20T07:08:53.591Z,12.50
2018-12-20T07:09:53.710Z,14.30
2018-12-20T07:10:53.738Z,14.80
2018-12-20T07:11:53.631Z,16.00
2018-12-20T07:12:53.669Z,15.00
2018-12-20T07:13:53.790Z,15.80
2018-12-20T07:14:53.740Z,15.20
2018-12-20T07:15:53.720Z,16.20
2018-12-20T07:16:53.732Z,15.40
2018-12-20T07:17:53.858Z,17.30
2018-12-20T07:18:53.788Z,16.00
2018-12-20T07:19:53.816Z,18.00
2018-12-20T07:20:53.912Z,18.80
2018-12-20T07:21:53.794Z,20.80
2018-12-20T07:22:53.903Z,18.70
2018-12-20T07:23:53.833Z,19.30
2018-12-20T07:24:54.006Z,18.30
2018-12-20T07:25:53.883Z,20.20
2018-12-20T07:26:53.875Z,20.00
2018-12-20T07:27:53.907Z,20.10
2018-12-20T07:28:53.925Z,21.90
2018-12-20T07:29:53.992Z,22.00
2018-12-20T07:30:53.961Z,24.10
2018-12-20T07:31:54.029Z,22.80
2018-12-20T07:32:53.998Z,23.00
2018-12-20T07:33:53.998Z,25.00
2018-12-20T07:34:54.118Z,28.00
2018-12-20T07:35:54.035Z,26.90
2018-12-20T07:36:54.054Z,25.80
2018-12-20T07:37:54.068Z,27.80
2018-12-20T07:38:54.091Z,27.50
2018-12-20T07:39:54.200Z,27.90
2018-12-20T07:40:54.111Z,27.60
2018-12-20T07:41:54.132Z,28.90
2018-12-20T07:42:54.141Z,31.40
2018-12-20T07:43:54.290Z,30.00
2018-12-20T07:44:54.278Z,32.00
2018-12-20T07:45:54.202Z,32.40
2018-12-20T07:46:54.236Z,34.80
2018-12-20T07:47:54.287Z,30.90
2018-12-20T07:48:54.276Z,34.40
2018-12-20T07:49:54.377Z,32.90
2018-12-20T07:50:54.292Z,37.30
2018-12-20T07:51:54.319Z,36.50
2018-12-20T07:52:54.323Z,39.40
2018-12-20T07:53:54.460Z,37.40
2018-12-20T07:54:54.402Z,37.70
2018-12-20T07:55:54.359Z,40.10
2018-12-20T07:56:54.390Z,41.60
2018-12-20T07:57:54.398Z,41.90
2018-12-20T07:58:54.410Z,42.90
2018-12-20T07:59:54.441Z,42.90
2018-12-20T08:00:54.549Z,42.00
2018-12-20T08:01:54.484Z,42.30
2018-12-20T08:02:54.492Z,41.00
2018-12-20T08:03:54.514Z,43.80
2018-12-20T08:04:54.547Z,42.60
2018-12-20T08:05:54.760Z,43.30
2018-12-20T08:06:54.550Z,43.50
2018-12-20T08:07:54.579Z,44.10
2018-12-20T08:08:54.585Z,48.00
2018-12-20T08:09:54.614Z,47.50
2018-12-20T08:10:54.691Z,45.80
2018-12-20T08:11:54.627Z,48.20
2018-12-20T08:12:54.659Z,46.90
2018-12-20T08:13:54.667Z,46.00
2018-12-20T08:14:54.683Z,48.70
2018-12-20T08:15:54.753Z,50.90
2018-12-20T08:16:54.786Z,47.40
2018-12-20T08:17:54.740Z,47.40
2018-12-20T08:18:54.776Z,48.90
2018-12-20T08:19:54.813Z,49.00
2018-12-20T08:20:54.791Z,48.70
2018-12-20T08:21:54.843Z,46.70
2018-12-20T08:22:54.815Z,48.40
2018-12-20T08:23:54.881Z,48.40
2018-12-20T08:24:54.865Z,45.60
2018-12-20T08:25:54.859Z,47.30
2018-12-20T08:26:55.025Z,45.00
2018-12-20T08:27:54.891Z,48.30
2018-12-20T08:28:54.931Z,46.10
2018-12-20T08:29:54.937Z,45.80
2018-12-20T08:30:54.956Z,44.20
2018-12-20T08:31:55.083Z,43.40
2018-12-20T08:32:54.990Z,46.90
2018-12-20T08:33:55.003Z,42.60
2018-12-20T08:34:55.009Z,42.90
2018-12-20T08:35:55.040Z,42.80
2018-12-20T08:36:55.200Z,42.50
2018-12-20T08:37:55.111Z,39.80
2018-12-20T08:38:55.118Z,40.10
2018-12-20T08:39:55.139Z,37.60
2018-12-20T08:40:55.118Z,34.10
2018-12-20T08:41:55.227Z,33.60
2018-12-20T08:42:55.152Z,24.60
2018-12-20T08:43:55.294Z,26.30
2018-12-20T08:44:55.309Z,24.50
2018-12-20T08:45:55.204Z,23.70
2018-12-20T08:46:55.327Z,24.10
2018-12-20T08:47:55.236Z,24.70
2018-12-20T08:48:55.256Z,24.10
2018-12-20T08:49:55.294Z,23.40
2018-12-20T08:50:55.284Z,23.50
2018-12-20T08:51:55.429Z,23.60
2018-12-20T08:52:55.321Z,22.80
2018-12-20T08:53:55.353Z,22.50
2018-12-20T08:54:55.357Z,23.00
2018-12-20T08:55:55.385Z,22.60
2018-12-20T08:56:55.550Z,22.70
2018-12-20T08:57:55.398Z,23.70
2018-12-20T08:58:55.435Z,22.40
2018-12-20T08:59:55.431Z,22.70
2018-12-20T09:00:55.444Z,22.90
2018-12-20T09:01:55.536Z,21.60
2018-12-20T09:02:55.479Z,23.10
2018-12-20T09:03:55.522Z,23.60
2018-12-20T09:04:55.518Z,22.60
2018-12-20T09:05:55.566Z,21.20
2018-12-20T09:06:55.667Z,21.60
2018-12-20T09:07:55.617Z,20.60
2018-12-20T09:08:55.596Z,20.60
2018-12-20T09:09:55.619Z,19.10
2018-12-20T09:10:55.662Z,20.80
2018-12-20T09:11:55.737Z,19.90
2018-12-20T09:12:55.788Z,19.20
2018-12-20T09:13:55.691Z,19.50
2018-12-20T09:14:55.712Z,19.70
2018-12-20T09:15:55.763Z,19.20
2018-12-20T09:17:02.612Z,18.20
2018-12-20T09:17:55.750Z,20.40
2018-12-20T09:18:55.766Z,19.70
2018-12-20T09:19:55.791Z,20.40
2018-12-20T09:20:55.922Z,18.90
2018-12-20T09:21:55.937Z,21.50
2018-12-20T09:22:55.842Z,19.60
2018-12-20T09:23:55.855Z,20.50
2018-12-20T09:24:55.862Z,20.70
2018-12-20T09:25:56.009Z,19.80
2018-12-20T09:26:56.053Z,20.00
2018-12-20T09:27:56.046Z,20.60
2018-12-20T09:28:55.976Z,19.70
2018-12-20T09:29:55.987Z,20.60
2018-12-20T09:30:55.996Z,19.10
2018-12-20T09:31:56.108Z,20.10
2018-12-20T09:32:56.025Z,19.60
2018-12-20T09:33:56.033Z,20.20
2018-12-20T09:34:56.164Z,20.60
2018-12-20T09:35:56.077Z,20.50
2018-12-20T09:36:56.219Z,21.00
2018-12-20T09:37:56.129Z,20.80
2018-12-20T09:38:56.103Z,21.70
2018-12-20T09:39:56.137Z,21.60
2018-12-20T09:40:56.163Z,20.90
2018-12-20T09:41:56.292Z,20.50
2018-12-20T09:42:56.247Z,21.30
2018-12-20T09:43:56.201Z,21.20
2018-12-20T09:44:56.219Z,22.70
2018-12-20T09:45:56.244Z,21.50
2018-12-20T09:46:56.377Z,21.80
2018-12-20T09:47:56.378Z,22.40
2018-12-20T09:48:56.305Z,22.50
2018-12-20T09:49:56.301Z,24.10
2018-12-20T09:50:56.335Z,23.10
2018-12-20T09:51:56.464Z,23.30
2018-12-20T09:52:56.488Z,24.80
2018-12-20T09:53:56.446Z,23.10
2018-12-20T09:54:56.383Z,24.90
2018-12-20T09:55:56.419Z,23.70
2018-12-20T09:56:56.468Z,23.40
2018-12-20T09:57:56.484Z,23.40
2018-12-20T09:58:56.539Z,22.70
2018-12-20T09:59:56.491Z,21.60
2018-12-20T10:00:56.625Z,22.40
2018-12-20T10:01:56.532Z,21.90
2018-12-20T10:02:56.565Z,22.90
2018-12-20T10:03:56.736Z,21.70
2018-12-20T10:04:56.582Z,25.10
2018-12-20T10:05:56.634Z,25.90
2018-12-20T10:06:56.608Z,26.30
2018-12-20T10:07:56.620Z,26.90
2018-12-20T10:08:56.862Z,24.20
2018-12-20T10:09:56.672Z,23.20
2018-12-20T10:10:56.683Z,23.60
2018-12-20T10:11:56.713Z,24.20
2018-12-20T10:12:56.737Z,23.60
2018-12-20T10:14:56.806Z,23.30
2018-12-20T10:15:56.781Z,24.30
2018-12-20T10:16:56.810Z,24.80
2018-12-20T10:17:56.811Z,25.10
2018-12-20T10:18:56.934Z,25.20
2018-12-20T10:19:56.973Z,23.00
2018-12-20T10:20:56.992Z,22.20
2018-12-20T10:21:56.898Z,22.50
2018-12-20T10:22:56.900Z,24.40
2018-12-20T10:23:57.020Z,26.20
2018-12-20T10:24:56.965Z,24.10
2018-12-20T10:25:56.999Z,24.20
2018-12-20T10:26:56.987Z,25.20
2018-12-20T10:27:57.031Z,24.80
2018-12-20T10:28:57.137Z,22.90
2018-12-20T10:29:57.032Z,24.10
2018-12-20T10:30:57.043Z,24.60
2018-12-20T10:31:57.130Z,26.50
2018-12-20T10:32:57.092Z,26.00
2018-12-20T10:33:57.260Z,29.20
2018-12-20T10:34:57.128Z,30.10
2018-12-20T10:35:57.270Z,27.50
2018-12-20T10:36:57.165Z,26.10
2018-12-20T10:37:57.184Z,27.70
2018-12-20T10:38:57.310Z,26.60
2018-12-20T10:39:57.217Z,27.20
2018-12-20T10:40:57.366Z,26.80
2018-12-20T10:41:57.383Z,26.10
2018-12-20T10:42:57.325Z,28.00
2018-12-20T10:43:57.405Z,25.50
2018-12-20T10:44:57.334Z,26.10
2018-12-20T10:45:57.331Z,25.90
2018-12-20T10:46:57.440Z,24.70
2018-12-20T10:47:57.507Z,24.60
2018-12-20T10:49:01.930Z,25.40
2018-12-20T10:49:57.436Z,25.80
2018-12-20T10:50:57.448Z,24.80
2018-12-20T10:51:57.472Z,26.30
2018-12-20T10:52:57.579Z,25.90
2018-12-20T10:53:57.527Z,24.70
2018-12-20T10:54:57.533Z,24.50
2018-12-20T10:55:57.541Z,25.00
2018-12-20T10:56:57.561Z,22.00
2018-12-20T10:57:57.627Z,22.50
2018-12-20T10:58:57.629Z,24.00
2018-12-20T10:59:57.627Z,28.60
2018-12-20T11:00:57.769Z,30.00
2018-12-20T11:01:57.809Z,28.80
2018-12-20T11:02:57.691Z,25.60
2018-12-20T11:03:57.698Z,27.40
2018-12-20T11:04:57.752Z,27.10
2018-12-20T11:05:57.768Z,31.70
2018-12-20T11:06:57.946Z,33.10
2018-12-20T11:07:57.798Z,31.50
2018-12-20T11:08:57.822Z,29.20
2018-12-20T11:09:57.961Z,30.40
2018-12-20T11:10:57.862Z,30.10
2018-12-20T11:11:57.976Z,28.50
2018-12-20T11:12:57.891Z,26.60
2018-12-20T11:13:57.923Z,25.60
2018-12-20T11:14:57.942Z,27.50
2018-12-20T11:15:57.973Z,24.90
2018-12-20T11:16:58.090Z,25.20
2018-12-20T11:17:58.037Z,24.70
2018-12-20T11:18:58.048Z,25.50
2018-12-20T11:19:58.062Z,26.10
2018-12-20T11:20:58.093Z,27.00
2018-12-20T11:21:58.263Z,27.80
2018-12-20T11:22:58.137Z,26.20
2018-12-20T11:23:58.154Z,25.50
2018-12-20T11:24:58.198Z,25.50
2018-12-20T11:25:58.204Z,27.00
2018-12-20T11:26:58.336Z,27.30
2018-12-20T11:27:58.256Z,27.70
2018-12-20T11:28:58.304Z,28.40
2018-12-20T11:29:58.311Z,26.30
2018-12-20T11:30:58.355Z,27.50
2018-12-20T11:31:58.426Z,28.10
2018-12-20T11:32:59.646Z,28.30
2018-12-20T11:33:58.411Z,27.70
2018-12-20T11:34:58.432Z,26.90
2018-12-20T11:35:58.556Z,28.80
2018-12-20T11:36:58.483Z,27.20
2018-12-20T11:37:58.497Z,26.50
2018-12-20T11:38:58.523Z,28.60
2018-12-20T11:39:59.690Z,27.70
2018-12-20T11:40:58.687Z,26.10
2018-12-20T11:41:58.601Z,26.40
2018-12-20T11:42:58.611Z,25.60
2018-12-20T11:43:58.647Z,27.70
2018-12-20T11:44:58.674Z,28.00
2018-12-20T11:45:58.752Z,28.10
2018-12-20T11:46:58.831Z,27.80
2018-12-20T11:47:58.794Z,27.90
2018-12-20T11:48:58.765Z,26.80
2018-12-20T11:49:59.038Z,29.90
2018-12-20T11:50:58.820Z,27.80
2018-12-20T11:51:58.928Z,30.20
2018-12-20T11:52:58.880Z,29.60
2018-12-20T11:53:58.875Z,30.20
2018-12-20T11:54:58.941Z,31.30
2018-12-20T11:55:58.928Z,31.20
2018-12-20T11:56:59.055Z,30.10
2018-12-20T11:57:58.985Z,29.50
2018-12-20T11:58:59.013Z,29.10
2018-12-20T11:59:59.037Z,29.60
2018-12-20T12:00:59.052Z,28.70
2018-12-20T12:01:59.175Z,27.70
2018-12-20T12:02:59.087Z,29.40
2018-12-20T12:03:59.125Z,28.50
2018-12-20T12:04:59.142Z,29.00
2018-12-20T12:05:59.162Z,30.10
2018-12-20T12:06:59.358Z,32.10
2018-12-20T12:07:59.336Z,32.20
2018-12-20T12:08:59.226Z,32.00
2018-12-20T12:09:59.271Z,32.60
2018-12-20T12:10:59.296Z,33.30
2018-12-20T12:11:59.462Z,31.30
2018-12-20T12:12:59.357Z,32.10
2018-12-20T12:13:59.405Z,32.90
2018-12-20T12:14:59.502Z,34.10
2018-12-20T12:15:59.446Z,32.50
2018-12-20T12:16:59.458Z,31.30
2018-12-20T12:17:59.435Z,32.10
2018-12-20T12:18:59.483Z,29.70
2018-12-20T12:19:59.477Z,32.30
2018-12-20T12:20:59.515Z,30.30
2018-12-20T12:21:59.695Z,29.30
2018-12-20T12:22:59.566Z,32.40
2018-12-20T12:23:59.584Z,30.80
2018-12-20T12:24:59.606Z,33.30
2018-12-20T12:25:59.633Z,32.30
2018-12-20T12:26:59.804Z,32.80
2018-12-20T12:27:59.682Z,33.40
2018-12-20T12:28:59.695Z,32.10
2018-12-20T12:29:59.724Z,31.50
2018-12-20T12:30:59.724Z,34.80
2018-12-20T12:31:59.815Z,32.90
2018-12-20T12:32:59.802Z,34.90
2018-12-20T12:33:59.845Z,33.60
2018-12-20T12:34:59.839Z,31.40
2018-12-20T12:35:59.888Z,32.40
2018-12-20T12:37:00.029Z,31.60
2018-12-20T12:37:59.907Z,33.60
2018-12-20T12:38:59.993Z,32.70
2018-12-20T12:39:59.957Z,31.50
2018-12-20T12:40:59.973Z,31.90
2018-12-20T12:42:00.106Z,32.60
2018-12-20T12:43:00.028Z,31.30
2018-12-20T12:44:00.047Z,31.90
2018-12-20T12:45:00.190Z,31.90
2018-12-20T12:46:00.091Z,32.30
2018-12-20T12:47:00.260Z,32.00
2018-12-20T12:48:03.700Z,32.30
2018-12-20T12:49:00.165Z,30.60
2018-12-20T12:50:00.188Z,32.60
2018-12-20T12:51:00.226Z,33.70
2018-12-20T12:52:00.412Z,30.90
2018-12-20T12:53:00.288Z,31.60
2018-12-20T12:54:00.314Z,32.70
2018-12-20T12:55:00.318Z,31.90
2018-12-20T12:56:00.352Z,33.50